首页
METAR-TAF:

METAR-TAF

机场 :

巴馬科, 马里共和国

巴馬科國際機場

纬度: 12-32N, 经度: 007-57W, 海拔: 380米

当前天气观测

该预报发布于16分钟前的01:30 UTC
风速6节,风向北转东北
温度 21°C
湿度 25%
气压 1016 hPa
能見度: 8000

METAR: GABS 190130Z 03006KT 8000 NSC 21/00 Q1016 NOSIG

时间: 01:46 (01:46 UTC)

预报

该预报发布于2小时和36分钟前的23:10 UTC
预报有效从19日的 00点(UTC)到 20日的 06点(UTC)
风速10节,风向北转东北
能見度: 8000
几率 40% :
短暂存在
从 19日的 06点(UTC)到 19日的 11点(UTC)
能見度: 4000
浮尘

TAF: GABS 182310Z 1900/2006 02010KT 8000 NSC PROB40 TEMPO 1906/1911 4000 DU

超过4000个机场的气象观测和天气预报(METAR&TAF报告)。

可查询的气象台以黄色和红色小点在地图上表示。

将鼠标移到小点上方,可查看气象台名称。

然后点击查看天气观测和预报。

如需切换地图:点击带黑十字的绿色按钮放大地图;点击带横线的绿色按钮缩小地图;或者点击绿色箭头查看邻近地区的地图。


METAR-TAF: